Accueil
METAR-TAF:

METAR-TAF

Aéroports :

Ouagadougou, Burkina Faso

Aéroport international de Ouagadougou

latitude: 12-21N, longitude: 001-31W, altitude: 316 m

Observation

Le bulletin a été fait il y a 1 heure et 15 minutes, à 04:00 UTC
Vent calme
Température 24°C
Humidité 100%
Pression 1014 hPa
Visibilité 10 km ou plus
Quelques nuages à une hauteur de 2000 ft
Quelques nuages à une hauteur de 3300 ft, Cumulonimbus.
orage

METAR: DFFD 260400Z 00000KT 9999 TS FEW020 FEW033CB 24/24 Q1014 NOSIG

Heure: 05:15 (05:15 UTC)


TAF: absent

Observations et prévisions météorologiques de plus de 4000 aéroports (messages METAR et TAF).

Les stations disponibles sont représentées par des disques jaunes et rouges sur la carte.

Passer la souris dessus pour voir le nom de la station.

Cliquer dessus pour voir les observations et prévisions météorologiques.

Pour changer de carte: cliquez sur les boutons verts avec une croix noire pour zoomer, sur le bouton vert avec un tiret pour effectuer un zoom arrière, ou sur les flèches vertes pour les cartes adjacentes.


METAR-TAF: